sensor_id;sensor_type;location;lat;lon;timestamp;P1;durP1;ratioP1;P2;durP2;ratioP2
22939;SDS011;11636;52.086;5.090;2023-04-24T00:02:00;3.17;;;1.30;;
22939;SDS011;11636;52.086;5.090;2023-04-24T00:04:48;3.47;;;1.30;;
22939;SDS011;11636;52.086;5.090;2023-04-24T00:07:41;4.35;;;1.45;;
22939;SDS011;11636;52.086;5.090;2023-04-24T00:10:30;3.55;;;1.70;;
22939;SDS011;11636;52.086;5.090;2023-04-24T00:13:24;3.42;;;2.38;;
22939;SDS011;11636;52.086;5.090;2023-04-24T00:16:18;4.82;;;2.10;;
22939;SDS011;11636;52.086;5.090;2023-04-24T00:19:05;3.75;;;2.22;;
22939;SDS011;11636;52.086;5.090;2023-04-24T00:21:59;3.17;;;2.30;;
22939;SDS011;11636;52.086;5.090;2023-04-24T00:24:46;3.70;;;2.30;;
22939;SDS011;11636;52.086;5.090;2023-04-24T00:27:40;4.10;;;2.60;;
22939;SDS011;11636;52.086;5.090;2023-04-24T00:30:27;5.80;;;2.60;;
22939;SDS011;11636;52.086;5.090;2023-04-24T00:33:21;3.85;;;2.85;;
22939;SDS011;11636;52.086;5.090;2023-04-24T00:36:15;5.32;;;3.60;;
22939;SDS011;11636;52.086;5.090;2023-04-24T00:39:09;8.45;;;3.83;;
22939;SDS011;11636;52.086;5.090;2023-04-24T00:42:03;5.07;;;3.80;;
22939;SDS011;11636;52.086;5.090;2023-04-24T00:44:59;6.68;;;3.88;;
22939;SDS011;11636;52.086;5.090;2023-04-24T00:47:49;6.53;;;4.57;;
22939;SDS011;11636;52.086;5.090;2023-04-24T00:50:45;4.90;;;4.00;;
22939;SDS011;11636;52.086;5.090;2023-04-24T00:53:33;6.15;;;4.47;;
22939;SDS011;11636;52.086;5.090;2023-04-24T00:56:26;5.20;;;3.90;;
22939;SDS011;11636;52.086;5.090;2023-04-24T00:59:15;5.80;;;4.03;;
22939;SDS011;11636;52.086;5.090;2023-04-24T01:02:10;5.45;;;4.40;;
22939;SDS011;11636;52.086;5.090;2023-04-24T01:05:04;5.78;;;4.40;;
22939;SDS011;11636;52.086;5.090;2023-04-24T01:07:58;5.25;;;3.85;;
22939;SDS011;11636;52.086;5.090;2023-04-24T01:10:52;5.10;;;4.45;;
22939;SDS011;11636;52.086;5.090;2023-04-24T01:13:39;6.63;;;5.13;;
22939;SDS011;11636;52.086;5.090;2023-04-24T01:16:33;7.65;;;5.03;;
22939;SDS011;11636;52.086;5.090;2023-04-24T01:19:27;8.00;;;6.30;;
22939;SDS011;11636;52.086;5.090;2023-04-24T01:22:14;10.15;;;6.30;;
22939;SDS011;11636;52.086;5.090;2023-04-24T01:25:09;9.65;;;5.97;;
22939;SDS011;11636;52.086;5.090;2023-04-24T01:27:56;8.95;;;7.35;;
22939;SDS011;11636;52.086;5.090;2023-04-24T01:30:50;8.82;;;7.25;;
22939;SDS011;11636;52.086;5.090;2023-04-24T01:33:37;7.90;;;6.10;;
22939;SDS011;11636;52.086;5.090;2023-04-24T01:36:31;8.38;;;6.18;;
22939;SDS011;11636;52.086;5.090;2023-04-24T01:39:27;7.72;;;6.13;;
22939;SDS011;11636;52.086;5.090;2023-04-24T01:42:15;7.95;;;6.28;;
22939;SDS011;11636;52.086;5.090;2023-04-24T01:45:10;7.28;;;5.57;;
22939;SDS011;11636;52.086;5.090;2023-04-24T01:47:57;7.90;;;5.70;;
22939;SDS011;11636;52.086;5.090;2023-04-24T01:50:52;7.43;;;5.93;;
22939;SDS011;11636;52.086;5.090;2023-04-24T01:53:46;9.05;;;6.00;;
22939;SDS011;11636;52.086;5.090;2023-04-24T01:56:41;7.05;;;6.00;;
22939;SDS011;11636;52.086;5.090;2023-04-24T01:59:29;7.80;;;5.75;;
22939;SDS011;11636;52.086;5.090;2023-04-24T02:02:23;7.35;;;5.43;;
22939;SDS011;11636;52.086;5.090;2023-04-24T02:05:14;7.78;;;5.80;;
22939;SDS011;11636;52.086;5.090;2023-04-24T02:08:07;6.55;;;5.18;;
22939;SDS011;11636;52.086;5.090;2023-04-24T02:11:01;7.40;;;5.40;;
22939;SDS011;11636;52.086;5.090;2023-04-24T02:13:48;7.30;;;4.95;;
22939;SDS011;11636;52.086;5.090;2023-04-24T02:16:43;5.95;;;4.45;;
22939;SDS011;11636;52.086;5.090;2023-04-24T02:19:30;5.78;;;4.30;;
22939;SDS011;11636;52.086;5.090;2023-04-24T02:22:24;6.43;;;4.88;;
22939;SDS011;11636;52.086;5.090;2023-04-24T02:25:18;5.47;;;4.10;;
22939;SDS011;11636;52.086;5.090;2023-04-24T02:28:06;5.00;;;4.20;;
22939;SDS011;11636;52.086;5.090;2023-04-24T02:31:06;5.32;;;3.97;;
22939;SDS011;11636;52.086;5.090;2023-04-24T02:34:06;6.70;;;4.88;;
22939;SDS011;11636;52.086;5.090;2023-04-24T02:37:00;6.25;;;4.78;;
22939;SDS011;11636;52.086;5.090;2023-04-24T02:39:47;6.32;;;4.43;;
22939;SDS011;11636;52.086;5.090;2023-04-24T02:42:41;7.32;;;4.93;;
22939;SDS011;11636;52.086;5.090;2023-04-24T02:45:28;7.05;;;5.38;;
22939;SDS011;11636;52.086;5.090;2023-04-24T02:48:22;8.48;;;6.28;;
22939;SDS011;11636;52.086;5.090;2023-04-24T02:51:16;7.35;;;5.53;;
22939;SDS011;11636;52.086;5.090;2023-04-24T02:54:03;7.80;;;5.57;;
22939;SDS011;11636;52.086;5.090;2023-04-24T02:56:57;7.03;;;5.63;;
22939;SDS011;11636;52.086;5.090;2023-04-24T02:59:44;7.65;;;5.53;;
22939;SDS011;11636;52.086;5.090;2023-04-24T03:02:38;6.85;;;4.95;;
22939;SDS011;11636;52.086;5.090;2023-04-24T03:05:26;8.68;;;6.57;;
22939;SDS011;11636;52.086;5.090;2023-04-24T03:08:20;9.00;;;5.82;;
22939;SDS011;11636;52.086;5.090;2023-04-24T03:11:14;9.13;;;6.40;;
22939;SDS011;11636;52.086;5.090;2023-04-24T03:14:08;8.75;;;6.00;;
22939;SDS011;11636;52.086;5.090;2023-04-24T03:17:02;9.38;;;6.88;;
22939;SDS011;11636;52.086;5.090;2023-04-24T03:19:49;8.30;;;6.20;;
22939;SDS011;11636;52.086;5.090;2023-04-24T03:22:43;9.93;;;6.90;;
22939;SDS011;11636;52.086;5.090;2023-04-24T03:25:37;8.52;;;6.03;;
22939;SDS011;11636;52.086;5.090;2023-04-24T03:28:25;9.43;;;6.63;;
22939;SDS011;11636;52.086;5.090;2023-04-24T03:31:19;9.40;;;6.00;;
22939;SDS011;11636;52.086;5.090;2023-04-24T03:34:13;8.13;;;5.50;;
22939;SDS011;11636;52.086;5.090;2023-04-24T03:37:07;6.90;;;4.70;;
22939;SDS011;11636;52.086;5.090;2023-04-24T03:40:01;6.28;;;4.13;;
22939;SDS011;11636;52.086;5.090;2023-04-24T03:42:49;6.82;;;4.47;;
22939;SDS011;11636;52.086;5.090;2023-04-24T03:45:42;6.18;;;4.43;;
22939;SDS011;11636;52.086;5.090;2023-04-24T03:48:29;6.57;;;4.72;;
22939;SDS011;11636;52.086;5.090;2023-04-24T03:51:23;8.18;;;5.03;;
22939;SDS011;11636;52.086;5.090;2023-04-24T03:54:10;6.45;;;4.20;;
22939;SDS011;11636;52.086;5.090;2023-04-24T03:57:04;7.80;;;5.57;;
22939;SDS011;11636;52.086;5.090;2023-04-24T03:59:52;7.40;;;5.13;;
22939;SDS011;11636;52.086;5.090;2023-04-24T04:02:46;7.70;;;5.22;;
22939;SDS011;11636;52.086;5.090;2023-04-24T04:05:42;9.15;;;6.20;;
22939;SDS011;11636;52.086;5.090;2023-04-24T04:08:35;8.40;;;5.90;;
22939;SDS011;11636;52.086;5.090;2023-04-24T04:11:23;9.32;;;6.00;;
22939;SDS011;11636;52.086;5.090;2023-04-24T04:14:16;6.63;;;4.60;;
22939;SDS011;11636;52.086;5.090;2023-04-24T04:17:10;6.35;;;4.55;;
22939;SDS011;11636;52.086;5.090;2023-04-24T04:20:05;5.88;;;4.50;;
22939;SDS011;11636;52.086;5.090;2023-04-24T04:22:55;5.43;;;3.55;;
22939;SDS011;11636;52.086;5.090;2023-04-24T04:25:49;6.55;;;4.35;;
22939;SDS011;11636;52.086;5.090;2023-04-24T04:28:38;6.78;;;4.32;;
22939;SDS011;11636;52.086;5.090;2023-04-24T04:31:31;6.70;;;4.68;;
22939;SDS011;11636;52.086;5.090;2023-04-24T04:34:19;6.88;;;4.72;;
22939;SDS011;11636;52.086;5.090;2023-04-24T04:37:12;8.07;;;5.28;;
22939;SDS011;11636;52.086;5.090;2023-04-24T04:40:07;7.90;;;5.38;;
22939;SDS011;11636;52.086;5.090;2023-04-24T04:43:04;9.20;;;6.32;;
22939;SDS011;11636;52.086;5.090;2023-04-24T04:45:58;9.93;;;6.90;;
22939;SDS011;11636;52.086;5.090;2023-04-24T04:48:47;9.68;;;6.63;;
22939;SDS011;11636;52.086;5.090;2023-04-24T04:51:40;8.75;;;6.05;;
22939;SDS011;11636;52.086;5.090;2023-04-24T04:54:28;11.65;;;6.00;;
22939;SDS011;11636;52.086;5.090;2023-04-24T04:57:22;5.13;;;3.60;;
22939;SDS011;11636;52.086;5.090;2023-04-24T05:00:10;4.40;;;2.90;;
22939;SDS011;11636;52.086;5.090;2023-04-24T05:03:04;4.80;;;2.80;;
22939;SDS011;11636;52.086;5.090;2023-04-24T05:06:06;5.25;;;2.40;;
22939;SDS011;11636;52.086;5.090;2023-04-24T05:08:59;3.55;;;1.42;;
22939;SDS011;11636;52.086;5.090;2023-04-24T05:11:47;3.33;;;1.33;;
22939;SDS011;11636;52.086;5.090;2023-04-24T05:14:41;3.58;;;1.50;;
22939;SDS011;11636;52.086;5.090;2023-04-24T05:17:35;2.25;;;1.00;;
22939;SDS011;11636;52.086;5.090;2023-04-24T05:20:29;2.45;;;0.95;;
22939;SDS011;11636;52.086;5.090;2023-04-24T05:23:16;2.35;;;0.93;;
22939;SDS011;11636;52.086;5.090;2023-04-24T05:26:09;2.70;;;0.80;;
22939;SDS011;11636;52.086;5.090;2023-04-24T05:29:03;2.70;;;1.00;;
22939;SDS011;11636;52.086;5.090;2023-04-24T05:31:57;1.80;;;0.90;;
22939;SDS011;11636;52.086;5.090;2023-04-24T05:34:52;3.08;;;1.10;;
22939;SDS011;11636;52.086;5.090;2023-04-24T05:37:39;1.85;;;1.00;;
22939;SDS011;11636;52.086;5.090;2023-04-24T05:40:32;3.53;;;1.60;;
22939;SDS011;11636;52.086;5.090;2023-04-24T05:43:27;3.05;;;1.58;;
22939;SDS011;11636;52.086;5.090;2023-04-24T05:46:14;3.35;;;1.50;;
22939;SDS011;11636;52.086;5.090;2023-04-24T05:49:08;4.00;;;2.30;;
22939;SDS011;11636;52.086;5.090;2023-04-24T05:51:55;4.03;;;2.20;;
22939;SDS011;11636;52.086;5.090;2023-04-24T05:54:49;4.93;;;2.45;;
22939;SDS011;11636;52.086;5.090;2023-04-24T05:57:36;4.78;;;2.47;;
22939;SDS011;11636;52.086;5.090;2023-04-24T06:00:30;5.22;;;2.55;;
22939;SDS011;11636;52.086;5.090;2023-04-24T06:03:17;4.57;;;2.30;;
22939;SDS011;11636;52.086;5.090;2023-04-24T06:06:11;5.00;;;2.92;;
22939;SDS011;11636;52.086;5.090;2023-04-24T06:09:05;5.88;;;4.07;;
22939;SDS011;11636;52.086;5.090;2023-04-24T06:11:59;9.60;;;7.40;;
22939;SDS011;11636;52.086;5.090;2023-04-24T06:14:53;16.75;;;10.07;;
22939;SDS011;11636;52.086;5.090;2023-04-24T06:17:42;18.73;;;11.70;;
22939;SDS011;11636;52.086;5.090;2023-04-24T06:20:36;22.85;;;13.07;;
22939;SDS011;11636;52.086;5.090;2023-04-24T06:23:23;22.10;;;14.65;;
22939;SDS011;11636;52.086;5.090;2023-04-24T06:26:17;23.55;;;16.23;;
22939;SDS011;11636;52.086;5.090;2023-04-24T06:29:04;29.83;;;17.38;;
22939;SDS011;11636;52.086;5.090;2023-04-24T06:31:58;24.70;;;16.95;;
22939;SDS011;11636;52.086;5.090;2023-04-24T06:34:45;25.67;;;16.15;;
22939;SDS011;11636;52.086;5.090;2023-04-24T06:37:39;27.50;;;16.67;;
22939;SDS011;11636;52.086;5.090;2023-04-24T06:40:27;24.15;;;16.48;;
22939;SDS011;11636;52.086;5.090;2023-04-24T06:43:21;28.00;;;15.95;;
22939;SDS011;11636;52.086;5.090;2023-04-24T06:46:08;29.60;;;15.52;;
22939;SDS011;11636;52.086;5.090;2023-04-24T06:49:02;24.95;;;14.93;;
22939;SDS011;11636;52.086;5.090;2023-04-24T06:51:49;25.88;;;14.95;;
22939;SDS011;11636;52.086;5.090;2023-04-24T06:54:43;26.23;;;14.65;;
22939;SDS011;11636;52.086;5.090;2023-04-24T06:57:37;28.67;;;13.40;;
22939;SDS011;11636;52.086;5.090;2023-04-24T07:00:24;20.08;;;12.48;;
22939;SDS011;11636;52.086;5.090;2023-04-24T07:03:18;25.30;;;13.15;;
22939;SDS011;11636;52.086;5.090;2023-04-24T07:06:05;23.02;;;13.15;;
22939;SDS011;11636;52.086;5.090;2023-04-24T07:09:00;24.10;;;13.07;;
22939;SDS011;11636;52.086;5.090;2023-04-24T07:11:47;24.73;;;12.70;;
22939;SDS011;11636;52.086;5.090;2023-04-24T07:14:41;23.58;;;11.57;;
22939;SDS011;11636;52.086;5.090;2023-04-24T07:17:35;24.48;;;11.77;;
22939;SDS011;11636;52.086;5.090;2023-04-24T07:20:22;28.10;;;11.57;;
22939;SDS011;11636;52.086;5.090;2023-04-24T07:23:16;26.20;;;10.85;;
22939;SDS011;11636;52.086;5.090;2023-04-24T07:26:04;26.65;;;10.48;;
22939;SDS011;11636;52.086;5.090;2023-04-24T07:28:58;27.77;;;10.02;;
22939;SDS011;11636;52.086;5.090;2023-04-24T07:31:45;25.33;;;9.63;;
22939;SDS011;11636;52.086;5.090;2023-04-24T07:34:39;28.20;;;9.77;;
22939;SDS011;11636;52.086;5.090;2023-04-24T07:37:27;26.38;;;8.93;;
22939;SDS011;11636;52.086;5.090;2023-04-24T07:40:22;27.42;;;9.32;;
22939;SDS011;11636;52.086;5.090;2023-04-24T07:43:10;29.55;;;8.57;;
22939;SDS011;11636;52.086;5.090;2023-04-24T07:46:04;29.00;;;8.70;;
22939;SDS011;11636;52.086;5.090;2023-04-24T07:48:54;24.90;;;8.00;;
22939;SDS011;11636;52.086;5.090;2023-04-24T07:51:59;28.50;;;7.63;;
22939;SDS011;11636;52.086;5.090;2023-04-24T07:54:55;24.48;;;6.20;;
22939;SDS011;11636;52.086;5.090;2023-04-24T07:57:51;25.13;;;6.57;;
22939;SDS011;11636;52.086;5.090;2023-04-24T08:00:38;25.23;;;5.70;;
22939;SDS011;11636;52.086;5.090;2023-04-24T08:03:32;23.65;;;5.53;;
22939;SDS011;11636;52.086;5.090;2023-04-24T08:06:26;21.10;;;5.22;;
22939;SDS011;11636;52.086;5.090;2023-04-24T08:09:23;24.55;;;4.53;;
22939;SDS011;11636;52.086;5.090;2023-04-24T08:12:13;15.73;;;4.20;;
22939;SDS011;11636;52.086;5.090;2023-04-24T08:15:07;22.98;;;4.07;;
22939;SDS011;11636;52.086;5.090;2023-04-24T08:17:55;18.42;;;4.05;;
22939;SDS011;11636;52.086;5.090;2023-04-24T08:20:49;16.10;;;3.30;;
22939;SDS011;11636;52.086;5.090;2023-04-24T08:23:36;15.18;;;2.67;;
22939;SDS011;11636;52.086;5.090;2023-04-24T08:26:30;14.68;;;3.03;;
22939;SDS011;11636;52.086;5.090;2023-04-24T08:29:32;15.65;;;3.13;;
22939;SDS011;11636;52.086;5.090;2023-04-24T08:32:25;12.77;;;3.22;;
22939;SDS011;11636;52.086;5.090;2023-04-24T08:38:16;13.75;;;2.92;;
22939;SDS011;11636;52.086;5.090;2023-04-24T08:41:03;18.83;;;3.35;;
22939;SDS011;11636;52.086;5.090;2023-04-24T08:43:58;13.77;;;2.95;;
22939;SDS011;11636;52.086;5.090;2023-04-24T08:46:46;18.27;;;4.07;;
22939;SDS011;11636;52.086;5.090;2023-04-24T08:49:41;19.48;;;3.78;;
22939;SDS011;11636;52.086;5.090;2023-04-24T08:52:36;17.83;;;3.67;;
22939;SDS011;11636;52.086;5.090;2023-04-24T08:55:30;15.70;;;3.05;;
22939;SDS011;11636;52.086;5.090;2023-04-24T08:58:25;16.45;;;3.15;;
22939;SDS011;11636;52.086;5.090;2023-04-24T09:01:13;14.95;;;3.08;;
22939;SDS011;11636;52.086;5.090;2023-04-24T09:04:08;11.98;;;3.13;;
22939;SDS011;11636;52.086;5.090;2023-04-24T09:07:06;12.38;;;2.80;;
22939;SDS011;11636;52.086;5.090;2023-04-24T09:09:56;17.00;;;3.40;;
22939;SDS011;11636;52.086;5.090;2023-04-24T09:12:50;12.73;;;2.97;;
22939;SDS011;11636;52.086;5.090;2023-04-24T09:15:38;11.02;;;2.88;;
22939;SDS011;11636;52.086;5.090;2023-04-24T09:18:33;11.20;;;2.40;;
22939;SDS011;11636;52.086;5.090;2023-04-24T09:21:32;12.48;;;2.70;;
22939;SDS011;11636;52.086;5.090;2023-04-24T09:24:26;11.95;;;2.70;;
22939;SDS011;11636;52.086;5.090;2023-04-24T09:27:22;6.60;;;2.28;;
22939;SDS011;11636;52.086;5.090;2023-04-24T09:30:10;13.73;;;2.60;;
22939;SDS011;11636;52.086;5.090;2023-04-24T09:35:59;6.95;;;1.95;;
22939;SDS011;11636;52.086;5.090;2023-04-24T09:38:53;13.13;;;1.92;;
22939;SDS011;11636;52.086;5.090;2023-04-24T09:44:46;10.25;;;2.15;;
22939;SDS011;11636;52.086;5.090;2023-04-24T09:48:00;13.93;;;2.17;;
22939;SDS011;11636;52.086;5.090;2023-04-24T09:50:54;9.02;;;2.05;;
22939;SDS011;11636;52.086;5.090;2023-04-24T09:53:45;9.48;;;2.00;;
22939;SDS011;11636;52.086;5.090;2023-04-24T09:56:41;7.28;;;1.88;;
22939;SDS011;11636;52.086;5.090;2023-04-24T09:59:41;7.97;;;2.30;;
22939;SDS011;11636;52.086;5.090;2023-04-24T10:02:37;9.75;;;1.88;;
22939;SDS011;11636;52.086;5.090;2023-04-24T10:05:35;5.95;;;1.77;;
22939;SDS011;11636;52.086;5.090;2023-04-24T10:08:35;7.95;;;1.33;;
22939;SDS011;11636;52.086;5.090;2023-04-24T10:11:26;7.80;;;1.20;;
22939;SDS011;11636;52.086;5.090;2023-04-24T10:14:21;8.68;;;1.10;;
22939;SDS011;11636;52.086;5.090;2023-04-24T10:17:16;6.57;;;0.80;;
22939;SDS011;11636;52.086;5.090;2023-04-24T10:20:10;6.38;;;0.90;;
22939;SDS011;11636;52.086;5.090;2023-04-24T10:23:04;8.60;;;1.30;;
22939;SDS011;11636;52.086;5.090;2023-04-24T10:25:52;5.13;;;0.98;;
22939;SDS011;11636;52.086;5.090;2023-04-24T10:28:46;7.47;;;0.80;;
22939;SDS011;11636;52.086;5.090;2023-04-24T10:31:40;8.05;;;1.30;;
22939;SDS011;11636;52.086;5.090;2023-04-24T10:34:28;10.27;;;1.80;;
22939;SDS011;11636;52.086;5.090;2023-04-24T10:37:22;4.93;;;1.08;;
22939;SDS011;11636;52.086;5.090;2023-04-24T10:40:18;6.25;;;0.80;;
22939;SDS011;11636;52.086;5.090;2023-04-24T10:43:13;6.47;;;0.80;;
22939;SDS011;11636;52.086;5.090;2023-04-24T10:46:16;6.43;;;1.08;;
22939;SDS011;11636;52.086;5.090;2023-04-24T10:49:06;4.95;;;1.08;;
22939;SDS011;11636;52.086;5.090;2023-04-24T10:52:02;4.50;;;1.00;;
22939;SDS011;11636;52.086;5.090;2023-04-24T10:54:52;4.97;;;0.85;;
22939;SDS011;11636;52.086;5.090;2023-04-24T10:58:03;4.22;;;1.38;;
22939;SDS011;11636;52.086;5.090;2023-04-24T11:00:57;4.78;;;1.10;;
22939;SDS011;11636;52.086;5.090;2023-04-24T11:03:56;5.93;;;1.00;;
22939;SDS011;11636;52.086;5.090;2023-04-24T11:06:51;4.97;;;0.90;;
22939;SDS011;11636;52.086;5.090;2023-04-24T11:09:45;7.63;;;1.10;;
22939;SDS011;11636;52.086;5.090;2023-04-24T11:12:39;6.68;;;1.10;;
22939;SDS011;11636;52.086;5.090;2023-04-24T11:15:33;10.73;;;1.42;;
22939;SDS011;11636;52.086;5.090;2023-04-24T11:18:29;7.68;;;1.10;;
22939;SDS011;11636;52.086;5.090;2023-04-24T11:21:31;4.75;;;0.80;;
22939;SDS011;11636;52.086;5.090;2023-04-24T11:24:29;4.95;;;0.70;;
22939;SDS011;11636;52.086;5.090;2023-04-24T11:27:24;4.57;;;0.82;;
22939;SDS011;11636;52.086;5.090;2023-04-24T11:30:28;3.67;;;0.55;;
22939;SDS011;11636;52.086;5.090;2023-04-24T11:33:22;4.80;;;0.63;;
22939;SDS011;11636;52.086;5.090;2023-04-24T11:36:09;3.78;;;0.60;;
22939;SDS011;11636;52.086;5.090;2023-04-24T11:39:03;5.53;;;0.82;;
22939;SDS011;11636;52.086;5.090;2023-04-24T11:41:51;6.50;;;0.95;;
22939;SDS011;11636;52.086;5.090;2023-04-24T11:44:45;5.22;;;0.80;;
22939;SDS011;11636;52.086;5.090;2023-04-24T11:47:34;4.70;;;0.90;;
22939;SDS011;11636;52.086;5.090;2023-04-24T11:50:27;7.57;;;0.90;;
22939;SDS011;11636;52.086;5.090;2023-04-24T11:53:22;6.72;;;1.20;;
22939;SDS011;11636;52.086;5.090;2023-04-24T11:56:20;7.18;;;0.93;;
22939;SDS011;11636;52.086;5.090;2023-04-24T11:59:15;4.43;;;1.27;;
22939;SDS011;11636;52.086;5.090;2023-04-24T12:02:19;7.78;;;1.10;;
22939;SDS011;11636;52.086;5.090;2023-04-24T12:05:20;7.43;;;1.30;;
22939;SDS011;11636;52.086;5.090;2023-04-24T12:08:28;8.93;;;1.33;;
22939;SDS011;11636;52.086;5.090;2023-04-24T12:11:24;7.97;;;1.30;;
22939;SDS011;11636;52.086;5.090;2023-04-24T12:14:18;7.85;;;1.67;;
22939;SDS011;11636;52.086;5.090;2023-04-24T12:17:05;5.60;;;1.38;;
22939;SDS011;11636;52.086;5.090;2023-04-24T12:20:03;10.18;;;1.92;;
22939;SDS011;11636;52.086;5.090;2023-04-24T12:22:59;12.40;;;1.90;;
22939;SDS011;11636;52.086;5.090;2023-04-24T12:25:53;15.55;;;2.30;;
22939;SDS011;11636;52.086;5.090;2023-04-24T12:28:48;10.52;;;2.00;;
22939;SDS011;11636;52.086;5.090;2023-04-24T12:31:42;11.80;;;2.03;;
22939;SDS011;11636;52.086;5.090;2023-04-24T12:34:36;9.05;;;2.00;;
22939;SDS011;11636;52.086;5.090;2023-04-24T12:37:24;11.85;;;2.10;;
22939;SDS011;11636;52.086;5.090;2023-04-24T12:40:20;13.65;;;1.70;;
22939;SDS011;11636;52.086;5.090;2023-04-24T12:43:14;8.05;;;1.58;;
22939;SDS011;11636;52.086;5.090;2023-04-24T12:46:12;12.65;;;2.20;;
22939;SDS011;11636;52.086;5.090;2023-04-24T12:49:03;10.68;;;1.90;;
22939;SDS011;11636;52.086;5.090;2023-04-24T12:51:56;10.50;;;2.40;;
22939;SDS011;11636;52.086;5.090;2023-04-24T12:54:54;12.07;;;2.40;;
22939;SDS011;11636;52.086;5.090;2023-04-24T12:57:49;9.65;;;2.33;;
22939;SDS011;11636;52.086;5.090;2023-04-24T13:00:43;12.98;;;2.72;;
22939;SDS011;11636;52.086;5.090;2023-04-24T13:03:32;15.88;;;2.47;;
22939;SDS011;11636;52.086;5.090;2023-04-24T13:06:26;16.88;;;3.25;;
22939;SDS011;11636;52.086;5.090;2023-04-24T13:09:20;12.18;;;2.85;;
22939;SDS011;11636;52.086;5.090;2023-04-24T13:12:09;13.27;;;3.08;;
22939;SDS011;11636;52.086;5.090;2023-04-24T13:15:04;13.07;;;2.55;;
22939;SDS011;11636;52.086;5.090;2023-04-24T13:17:58;13.85;;;2.20;;
22939;SDS011;11636;52.086;5.090;2023-04-24T13:20:45;12.80;;;2.78;;
22939;SDS011;11636;52.086;5.090;2023-04-24T13:23:40;10.23;;;2.20;;
22939;SDS011;11636;52.086;5.090;2023-04-24T13:26:28;14.27;;;3.38;;
22939;SDS011;11636;52.086;5.090;2023-04-24T13:29:22;12.65;;;3.25;;
22939;SDS011;11636;52.086;5.090;2023-04-24T13:32:10;13.13;;;3.03;;
22939;SDS011;11636;52.086;5.090;2023-04-24T13:35:04;12.38;;;2.10;;
22939;SDS011;11636;52.086;5.090;2023-04-24T13:37:57;14.48;;;3.05;;
22939;SDS011;11636;52.086;5.090;2023-04-24T13:40:51;13.50;;;2.60;;
22939;SDS011;11636;52.086;5.090;2023-04-24T13:43:45;10.30;;;2.60;;
22939;SDS011;11636;52.086;5.090;2023-04-24T13:46:39;10.32;;;2.95;;
22939;SDS011;11636;52.086;5.090;2023-04-24T13:49:33;9.13;;;2.97;;
22939;SDS011;11636;52.086;5.090;2023-04-24T13:52:20;10.75;;;2.70;;
22939;SDS011;11636;52.086;5.090;2023-04-24T13:55:14;8.02;;;2.38;;
22939;SDS011;11636;52.086;5.090;2023-04-24T13:58:02;9.10;;;2.90;;
22939;SDS011;11636;52.086;5.090;2023-04-24T14:00:55;11.60;;;2.70;;
22939;SDS011;11636;52.086;5.090;2023-04-24T14:03:43;11.90;;;3.08;;
22939;SDS011;11636;52.086;5.090;2023-04-24T14:06:37;13.68;;;3.28;;
22939;SDS011;11636;52.086;5.090;2023-04-24T14:09:24;11.73;;;3.03;;
22939;SDS011;11636;52.086;5.090;2023-04-24T14:12:17;16.98;;;4.15;;
22939;SDS011;11636;52.086;5.090;2023-04-24T14:15:12;15.23;;;3.17;;
22939;SDS011;11636;52.086;5.090;2023-04-24T14:18:00;15.75;;;3.72;;
22939;SDS011;11636;52.086;5.090;2023-04-24T14:20:53;10.82;;;3.15;;
22939;SDS011;11636;52.086;5.090;2023-04-24T14:23:41;20.10;;;3.70;;
22939;SDS011;11636;52.086;5.090;2023-04-24T14:26:41;9.93;;;3.38;;
22939;SDS011;11636;52.086;5.090;2023-04-24T14:29:29;17.60;;;4.22;;
22939;SDS011;11636;52.086;5.090;2023-04-24T14:32:29;8.13;;;3.50;;
22939;SDS011;11636;52.086;5.090;2023-04-24T14:35:16;11.85;;;3.60;;
22939;SDS011;11636;52.086;5.090;2023-04-24T14:38:09;12.10;;;3.83;;
22939;SDS011;11636;52.086;5.090;2023-04-24T14:40:57;11.75;;;3.63;;
22939;SDS011;11636;52.086;5.090;2023-04-24T14:43:54;12.55;;;3.53;;
22939;SDS011;11636;52.086;5.090;2023-04-24T14:46:42;15.75;;;3.40;;
22939;SDS011;11636;52.086;5.090;2023-04-24T14:49:36;11.80;;;3.40;;
22939;SDS011;11636;52.086;5.090;2023-04-24T14:52:23;14.13;;;3.97;;
22939;SDS011;11636;52.086;5.090;2023-04-24T14:55:17;10.75;;;3.05;;
22939;SDS011;11636;52.086;5.090;2023-04-24T14:58:04;13.88;;;3.38;;
22939;SDS011;11636;52.086;5.090;2023-04-24T15:00:57;11.45;;;3.33;;
22939;SDS011;11636;52.086;5.090;2023-04-24T15:03:51;13.57;;;3.85;;
22939;SDS011;11636;52.086;5.090;2023-04-24T15:06:39;14.30;;;4.45;;
22939;SDS011;11636;52.086;5.090;2023-04-24T15:09:32;13.65;;;3.65;;
22939;SDS011;11636;52.086;5.090;2023-04-24T15:12:26;17.77;;;3.70;;
22939;SDS011;11636;52.086;5.090;2023-04-24T15:15:21;13.85;;;3.88;;
22939;SDS011;11636;52.086;5.090;2023-04-24T15:18:09;16.63;;;4.00;;
22939;SDS011;11636;52.086;5.090;2023-04-24T15:21:04;12.70;;;3.25;;
22939;SDS011;11636;52.086;5.090;2023-04-24T15:23:51;12.18;;;3.38;;
22939;SDS011;11636;52.086;5.090;2023-04-24T15:26:45;10.73;;;3.47;;
22939;SDS011;11636;52.086;5.090;2023-04-24T15:29:33;14.20;;;4.30;;
22939;SDS011;11636;52.086;5.090;2023-04-24T15:32:26;18.20;;;4.30;;
22939;SDS011;11636;52.086;5.090;2023-04-24T15:35:14;13.60;;;3.85;;
22939;SDS011;11636;52.086;5.090;2023-04-24T15:38:09;16.02;;;4.22;;
22939;SDS011;11636;52.086;5.090;2023-04-24T15:40:56;17.08;;;3.50;;
22939;SDS011;11636;52.086;5.090;2023-04-24T15:43:49;13.93;;;4.88;;
22939;SDS011;11636;52.086;5.090;2023-04-24T15:46:43;15.27;;;3.90;;
22939;SDS011;11636;52.086;5.090;2023-04-24T15:49:37;11.85;;;3.60;;
22939;SDS011;11636;52.086;5.090;2023-04-24T15:52:25;15.88;;;5.10;;
22939;SDS011;11636;52.086;5.090;2023-04-24T15:55:18;15.82;;;4.50;;
22939;SDS011;11636;52.086;5.090;2023-04-24T15:58:06;11.80;;;3.78;;
22939;SDS011;11636;52.086;5.090;2023-04-24T16:00:59;13.30;;;4.07;;
22939;SDS011;11636;52.086;5.090;2023-04-24T16:03:47;15.98;;;4.35;;
22939;SDS011;11636;52.086;5.090;2023-04-24T16:06:41;15.05;;;4.18;;
22939;SDS011;11636;52.086;5.090;2023-04-24T16:09:34;12.18;;;3.70;;
22939;SDS011;11636;52.086;5.090;2023-04-24T16:12:28;14.70;;;3.65;;
22939;SDS011;11636;52.086;5.090;2023-04-24T16:15:23;14.80;;;3.83;;
22939;SDS011;11636;52.086;5.090;2023-04-24T16:18:10;12.80;;;3.88;;
22939;SDS011;11636;52.086;5.090;2023-04-24T16:21:04;18.63;;;4.57;;
22939;SDS011;11636;52.086;5.090;2023-04-24T16:23:51;15.52;;;3.75;;
22939;SDS011;11636;52.086;5.090;2023-04-24T16:26:44;12.63;;;4.07;;
22939;SDS011;11636;52.086;5.090;2023-04-24T16:29:32;10.80;;;4.10;;
22939;SDS011;11636;52.086;5.090;2023-04-24T16:32:26;14.70;;;4.15;;
22939;SDS011;11636;52.086;5.090;2023-04-24T16:35:13;12.75;;;3.60;;
22939;SDS011;11636;52.086;5.090;2023-04-24T16:38:07;15.13;;;3.45;;
22939;SDS011;11636;52.086;5.090;2023-04-24T16:40:54;13.27;;;3.78;;
22939;SDS011;11636;52.086;5.090;2023-04-24T16:43:48;13.90;;;4.30;;
22939;SDS011;11636;52.086;5.090;2023-04-24T16:46:35;18.13;;;5.65;;
22939;SDS011;11636;52.086;5.090;2023-04-24T16:49:29;16.17;;;4.57;;
22939;SDS011;11636;52.086;5.090;2023-04-24T16:52:25;13.15;;;4.38;;
22939;SDS011;11636;52.086;5.090;2023-04-24T16:55:12;20.20;;;4.63;;
22939;SDS011;11636;52.086;5.090;2023-04-24T16:58:06;21.05;;;5.05;;
22939;SDS011;11636;52.086;5.090;2023-04-24T17:00:53;16.42;;;4.50;;
22939;SDS011;11636;52.086;5.090;2023-04-24T17:03:47;19.65;;;4.93;;
22939;SDS011;11636;52.086;5.090;2023-04-24T17:06:41;19.23;;;4.93;;
22939;SDS011;11636;52.086;5.090;2023-04-24T17:09:35;22.13;;;5.22;;
22939;SDS011;11636;52.086;5.090;2023-04-24T17:12:22;19.13;;;4.63;;
22939;SDS011;11636;52.086;5.090;2023-04-24T17:15:16;17.60;;;5.10;;
22939;SDS011;11636;52.086;5.090;2023-04-24T17:18:10;20.45;;;4.65;;
22939;SDS011;11636;52.086;5.090;2023-04-24T17:21:04;18.10;;;4.25;;